Time,TemperatureF,DewpointF,PressureIn,WindDirection,WindDirectionDegrees,WindSpeedMPH,WindSpeedGustMPH,Humidity,HourlyPrecipIn,Conditions,Clouds,dailyrainin,SoftwareType,DateUTC
2013-08-25 00:02:00,-999.0,-99.9,30.20,East,90,0.0,2.0,-999,-99.99,,,-99.99,,2013-08-25 04:02:00,
2013-08-25 00:25:00,73.0,62.0,30.20,East,90,0.0,2.0,68,0.00,,,0.00,,2013-08-25 04:25:00,
2013-08-25 00:54:00,73.0,61.0,30.20,East,90,0.0,2.0,67,0.00,,,0.00,,2013-08-25 04:54:00,
2013-08-25 05:22:00,69.0,62.0,30.22,East,98,0.0,3.0,78,0.00,,,0.00,,2013-08-25 09:22:00,
2013-08-25 05:55:00,68.0,62.0,30.22,East,98,0.0,2.0,80,0.00,,,0.00,,2013-08-25 09:55:00,
2013-08-25 06:53:00,67.0,61.0,30.24,East,99,0.0,2.0,82,0.00,,,0.00,,2013-08-25 10:53:00,
2013-08-25 07:22:00,67.0,62.0,30.24,East,99,0.0,2.0,83,0.00,,,0.00,,2013-08-25 11:22:00,
2013-08-25 11:23:00,81.0,69.0,30.27,East,83,0.0,3.0,66,0.00,,,0.00,,2013-08-25 15:23:00,
2013-08-25 11:55:00,82.0,66.0,30.26,SE,137,1.0,5.0,59,0.00,,,0.00,,2013-08-25 15:55:00,
2013-08-25 12:24:00,83.0,66.0,30.26,SE,144,0.0,4.0,57,0.00,,,0.00,,2013-08-25 16:24:00,
2013-08-25 12:54:00,83.0,65.0,30.25,SSE,160,0.0,2.0,54,0.00,,,0.00,,2013-08-25 16:54:00,
2013-08-25 13:22:00,85.0,64.0,30.25,East,99,0.0,6.0,49,0.00,,,0.00,,2013-08-25 17:22:00,
2013-08-25 13:53:00,86.0,65.0,30.24,East,94,0.0,5.0,49,0.00,,,0.00,,2013-08-25 17:53:00,
2013-08-25 14:22:00,86.0,63.0,30.23,East,96,0.0,2.0,47,0.00,,,0.00,,2013-08-25 18:22:00,
2013-08-25 14:52:00,85.0,63.0,30.22,SSE,154,0.0,2.0,48,0.00,,,0.00,,2013-08-25 18:52:00,
2013-08-25 15:22:00,87.0,65.0,30.21,SE,130,0.0,5.0,48,0.00,,,0.00,,2013-08-25 19:22:00,
2013-08-25 15:53:00,88.0,65.0,30.20,SE,144,0.0,4.0,47,0.00,,,0.00,,2013-08-25 19:53:00,
2013-08-25 16:23:00,88.0,65.0,30.20,ESE,122,0.0,4.0,46,0.00,,,0.00,,2013-08-25 20:23:00,
2013-08-25 16:53:00,87.0,67.0,30.19,SSE,157,0.0,1.0,51,0.00,,,0.00,,2013-08-25 20:53:00,
2013-08-25 17:22:00,89.0,63.0,30.19,SE,130,0.0,3.0,42,0.00,,,0.00,,2013-08-25 21:22:00,
2013-08-25 17:55:00,87.0,64.0,30.18,ESE,122,0.0,2.0,46,0.00,,,0.00,,2013-08-25 21:55:00,
2013-08-25 18:24:00,87.0,63.0,30.18,ESE,122,0.0,1.0,45,0.00,,,0.00,,2013-08-25 22:24:00,
2013-08-25 18:53:00,85.0,67.0,30.18,ESE,122,0.0,0.0,55,0.00,,,0.00,,2013-08-25 22:53:00,
2013-08-25 19:23:00,84.0,66.0,30.17,ESE,122,0.0,0.0,55,0.00,,,0.00,,2013-08-25 23:23:00,
2013-08-25 19:53:00,81.0,65.0,30.17,ESE,122,0.0,0.0,58,0.00,,,0.00,,2013-08-25 23:53:00,
2013-08-25 20:22:00,79.0,64.0,30.17,ESE,122,0.0,0.0,61,0.00,,,0.00,,2013-08-26 00:22:00,
2013-08-25 20:52:00,78.0,64.0,30.17,ESE,122,0.0,0.0,63,0.00,,,0.00,,2013-08-26 00:52:00,
2013-08-25 21:22:00,78.0,64.0,30.17,ESE,122,0.0,0.0,63,0.00,,,0.00,,2013-08-26 01:22:00,
2013-08-25 21:52:00,78.0,64.0,30.18,ESE,122,0.0,1.0,63,0.00,,,0.00,,2013-08-26 01:52:00,
2013-08-25 22:22:00,77.0,64.0,30.19,ESE,122,0.0,0.0,65,0.00,,,0.00,,2013-08-26 02:22:00,
2013-08-25 22:52:00,77.0,63.0,30.20,ESE,122,0.0,1.0,63,0.00,,,0.00,,2013-08-26 02:52:00,